sensor_id;sensor_type;location;lat;lon;timestamp;P1;durP1;ratioP1;P2;durP2;ratioP2
5491;SDS011;2768;53.540;10.224;2023-03-30T00:00:38;18.53;;;16.73;;
5491;SDS011;2768;53.540;10.224;2023-03-30T00:06:33;16.70;;;14.53;;
5491;SDS011;2768;53.540;10.224;2023-03-30T00:12:30;16.27;;;14.60;;
5491;SDS011;2768;53.540;10.224;2023-03-30T00:18:24;15.80;;;14.27;;
5491;SDS011;2768;53.540;10.224;2023-03-30T00:24:17;17.17;;;15.37;;
5491;SDS011;2768;53.540;10.224;2023-03-30T00:30:13;14.57;;;13.10;;
5491;SDS011;2768;53.540;10.224;2023-03-30T00:36:08;16.63;;;14.73;;
5491;SDS011;2768;53.540;10.224;2023-03-30T00:42:01;19.20;;;16.07;;
5491;SDS011;2768;53.540;10.224;2023-03-30T00:48:00;15.53;;;13.57;;
5491;SDS011;2768;53.540;10.224;2023-03-30T00:53:58;17.47;;;14.37;;
5491;SDS011;2768;53.540;10.224;2023-03-30T00:59:55;15.87;;;14.30;;
5491;SDS011;2768;53.540;10.224;2023-03-30T01:05:51;15.93;;;14.23;;
5491;SDS011;2768;53.540;10.224;2023-03-30T01:11:46;16.53;;;14.83;;
5491;SDS011;2768;53.540;10.224;2023-03-30T01:30:38;15.70;;;14.10;;
5491;SDS011;2768;53.540;10.224;2023-03-30T01:43:12;14.73;;;12.73;;
5491;SDS011;2768;53.540;10.224;2023-03-30T01:49:11;14.83;;;13.20;;
5491;SDS011;2768;53.540;10.224;2023-03-30T01:55:09;14.93;;;13.13;;
5491;SDS011;2768;53.540;10.224;2023-03-30T02:01:08;15.40;;;13.80;;
5491;SDS011;2768;53.540;10.224;2023-03-30T02:07:05;15.77;;;14.10;;
5491;SDS011;2768;53.540;10.224;2023-03-30T02:13:02;17.17;;;13.90;;
5491;SDS011;2768;53.540;10.224;2023-03-30T02:18:59;17.23;;;13.87;;
5491;SDS011;2768;53.540;10.224;2023-03-30T02:24:54;18.97;;;14.03;;
5491;SDS011;2768;53.540;10.224;2023-03-30T02:30:48;17.07;;;14.77;;
5491;SDS011;2768;53.540;10.224;2023-03-30T02:36:47;17.03;;;14.70;;
5491;SDS011;2768;53.540;10.224;2023-03-30T02:42:57;20.63;;;14.87;;
5491;SDS011;2768;53.540;10.224;2023-03-30T02:49:03;20.10;;;15.43;;
5491;SDS011;2768;53.540;10.224;2023-03-30T02:55:13;15.67;;;14.07;;
5491;SDS011;2768;53.540;10.224;2023-03-30T03:01:14;17.47;;;15.40;;
5491;SDS011;2768;53.540;10.224;2023-03-30T03:07:17;19.30;;;15.00;;
5491;SDS011;2768;53.540;10.224;2023-03-30T03:13:14;19.30;;;15.43;;
5491;SDS011;2768;53.540;10.224;2023-03-30T03:19:08;19.97;;;15.27;;
5491;SDS011;2768;53.540;10.224;2023-03-30T03:25:03;17.50;;;13.97;;
5491;SDS011;2768;53.540;10.224;2023-03-30T03:31:13;16.90;;;13.73;;
5491;SDS011;2768;53.540;10.224;2023-03-30T03:37:07;18.23;;;14.20;;
5491;SDS011;2768;53.540;10.224;2023-03-30T03:43:01;18.20;;;13.63;;
5491;SDS011;2768;53.540;10.224;2023-03-30T03:48:57;17.80;;;14.80;;
5491;SDS011;2768;53.540;10.224;2023-03-30T03:54:51;16.20;;;13.63;;
5491;SDS011;2768;53.540;10.224;2023-03-30T04:00:45;16.80;;;14.97;;
5491;SDS011;2768;53.540;10.224;2023-03-30T04:06:40;15.30;;;13.80;;
5491;SDS011;2768;53.540;10.224;2023-03-30T04:12:33;18.23;;;14.50;;
5491;SDS011;2768;53.540;10.224;2023-03-30T04:18:47;14.50;;;12.97;;
5491;SDS011;2768;53.540;10.224;2023-03-30T04:24:53;14.60;;;13.03;;
5491;SDS011;2768;53.540;10.224;2023-03-30T04:30:56;16.87;;;13.50;;
5491;SDS011;2768;53.540;10.224;2023-03-30T04:37:12;15.57;;;13.23;;
5491;SDS011;2768;53.540;10.224;2023-03-30T04:43:19;15.63;;;12.70;;
5491;SDS011;2768;53.540;10.224;2023-03-30T04:49:51;17.40;;;13.03;;
5491;SDS011;2768;53.540;10.224;2023-03-30T04:56:03;13.73;;;11.90;;
5491;SDS011;2768;53.540;10.224;2023-03-30T05:02:20;15.97;;;12.10;;
5491;SDS011;2768;53.540;10.224;2023-03-30T05:08:37;15.70;;;11.73;;
5491;SDS011;2768;53.540;10.224;2023-03-30T05:14:51;17.60;;;12.07;;
5491;SDS011;2768;53.540;10.224;2023-03-30T05:20:56;13.43;;;12.10;;
5491;SDS011;2768;53.540;10.224;2023-03-30T05:27:16;15.13;;;11.70;;
5491;SDS011;2768;53.540;10.224;2023-03-30T05:33:28;13.47;;;11.67;;
5491;SDS011;2768;53.540;10.224;2023-03-30T05:39:43;15.33;;;11.77;;
5491;SDS011;2768;53.540;10.224;2023-03-30T05:45:54;12.23;;;10.10;;
5491;SDS011;2768;53.540;10.224;2023-03-30T05:51:55;13.23;;;10.20;;
5491;SDS011;2768;53.540;10.224;2023-03-30T05:58:15;14.37;;;10.50;;
5491;SDS011;2768;53.540;10.224;2023-03-30T06:04:44;12.60;;;10.23;;
5491;SDS011;2768;53.540;10.224;2023-03-30T06:10:39;11.87;;;9.93;;
5491;SDS011;2768;53.540;10.224;2023-03-30T06:16:37;12.17;;;9.47;;
5491;SDS011;2768;53.540;10.224;2023-03-30T06:22:31;10.83;;;9.27;;
5491;SDS011;2768;53.540;10.224;2023-03-30T06:28:33;10.90;;;9.77;;
5491;SDS011;2768;53.540;10.224;2023-03-30T06:34:30;10.90;;;8.83;;
5491;SDS011;2768;53.540;10.224;2023-03-30T06:40:24;10.60;;;9.50;;
5491;SDS011;2768;53.540;10.224;2023-03-30T06:46:19;10.87;;;9.03;;
5491;SDS011;2768;53.540;10.224;2023-03-30T06:52:15;13.10;;;8.47;;
5491;SDS011;2768;53.540;10.224;2023-03-30T06:58:08;9.30;;;7.70;;
5491;SDS011;2768;53.540;10.224;2023-03-30T07:04:02;12.10;;;8.83;;
5491;SDS011;2768;53.540;10.224;2023-03-30T07:10:13;8.97;;;7.77;;
5491;SDS011;2768;53.540;10.224;2023-03-30T07:16:08;8.87;;;6.80;;
5491;SDS011;2768;53.540;10.224;2023-03-30T07:22:02;10.43;;;6.83;;
5491;SDS011;2768;53.540;10.224;2023-03-30T07:27:56;7.67;;;6.97;;
5491;SDS011;2768;53.540;10.224;2023-03-30T07:33:50;10.47;;;7.33;;
5491;SDS011;2768;53.540;10.224;2023-03-30T07:39:48;7.80;;;6.50;;
5491;SDS011;2768;53.540;10.224;2023-03-30T07:45:42;7.43;;;5.73;;
5491;SDS011;2768;53.540;10.224;2023-03-30T07:51:41;7.47;;;6.63;;
5491;SDS011;2768;53.540;10.224;2023-03-30T07:57:42;5.80;;;5.17;;
5491;SDS011;2768;53.540;10.224;2023-03-30T08:03:38;6.50;;;5.37;;
5491;SDS011;2768;53.540;10.224;2023-03-30T08:09:31;6.33;;;5.00;;
5491;SDS011;2768;53.540;10.224;2023-03-30T08:15:26;9.93;;;5.67;;
5491;SDS011;2768;53.540;10.224;2023-03-30T08:21:21;9.00;;;4.70;;
5491;SDS011;2768;53.540;10.224;2023-03-30T08:27:15;8.07;;;5.10;;
5491;SDS011;2768;53.540;10.224;2023-03-30T08:33:08;7.80;;;5.30;;
5491;SDS011;2768;53.540;10.224;2023-03-30T08:39:03;9.57;;;4.30;;
5491;SDS011;2768;53.540;10.224;2023-03-30T08:44:57;6.80;;;4.60;;
5491;SDS011;2768;53.540;10.224;2023-03-30T08:50:56;5.60;;;4.53;;
5491;SDS011;2768;53.540;10.224;2023-03-30T08:56:56;6.60;;;4.20;;
5491;SDS011;2768;53.540;10.224;2023-03-30T09:02:57;6.60;;;3.70;;
5491;SDS011;2768;53.540;10.224;2023-03-30T09:08:58;5.90;;;3.70;;
5491;SDS011;2768;53.540;10.224;2023-03-30T09:14:54;6.43;;;3.73;;
5491;SDS011;2768;53.540;10.224;2023-03-30T09:20:49;7.63;;;3.80;;
5491;SDS011;2768;53.540;10.224;2023-03-30T09:26:44;7.73;;;4.20;;
5491;SDS011;2768;53.540;10.224;2023-03-30T09:32:47;4.83;;;3.70;;
5491;SDS011;2768;53.540;10.224;2023-03-30T09:38:48;7.00;;;3.97;;
5491;SDS011;2768;53.540;10.224;2023-03-30T09:44:43;5.80;;;3.83;;
5491;SDS011;2768;53.540;10.224;2023-03-30T09:50:41;6.30;;;3.87;;
5491;SDS011;2768;53.540;10.224;2023-03-30T09:56:37;6.30;;;3.40;;
5491;SDS011;2768;53.540;10.224;2023-03-30T10:02:37;5.10;;;3.20;;
5491;SDS011;2768;53.540;10.224;2023-03-30T10:08:32;4.43;;;2.90;;
5491;SDS011;2768;53.540;10.224;2023-03-30T10:14:29;3.13;;;2.83;;
5491;SDS011;2768;53.540;10.224;2023-03-30T10:20:26;5.43;;;3.10;;
5491;SDS011;2768;53.540;10.224;2023-03-30T10:26:25;5.33;;;2.67;;
5491;SDS011;2768;53.540;10.224;2023-03-30T10:32:22;4.43;;;2.90;;
5491;SDS011;2768;53.540;10.224;2023-03-30T10:38:20;5.30;;;2.83;;
5491;SDS011;2768;53.540;10.224;2023-03-30T10:44:18;5.10;;;2.43;;
5491;SDS011;2768;53.540;10.224;2023-03-30T10:50:17;5.13;;;2.40;;
5491;SDS011;2768;53.540;10.224;2023-03-30T10:56:20;2.90;;;1.87;;
5491;SDS011;2768;53.540;10.224;2023-03-30T11:02:34;3.43;;;2.10;;
5491;SDS011;2768;53.540;10.224;2023-03-30T11:08:37;3.70;;;1.77;;
5491;SDS011;2768;53.540;10.224;2023-03-30T11:14:35;3.80;;;2.10;;
5491;SDS011;2768;53.540;10.224;2023-03-30T11:20:34;5.37;;;1.80;;
5491;SDS011;2768;53.540;10.224;2023-03-30T11:26:34;4.03;;;2.03;;
5491;SDS011;2768;53.540;10.224;2023-03-30T11:32:31;5.90;;;1.83;;
5491;SDS011;2768;53.540;10.224;2023-03-30T11:38:34;4.90;;;2.20;;
5491;SDS011;2768;53.540;10.224;2023-03-30T11:44:32;4.83;;;1.93;;
5491;SDS011;2768;53.540;10.224;2023-03-30T11:50:30;4.90;;;2.40;;
5491;SDS011;2768;53.540;10.224;2023-03-30T11:56:38;5.43;;;1.93;;
5491;SDS011;2768;53.540;10.224;2023-03-30T12:02:39;6.23;;;1.33;;
5491;SDS011;2768;53.540;10.224;2023-03-30T12:15:22;4.00;;;1.70;;
5491;SDS011;2768;53.540;10.224;2023-03-30T12:21:27;2.40;;;1.30;;
5491;SDS011;2768;53.540;10.224;2023-03-30T12:27:24;5.30;;;2.00;;
5491;SDS011;2768;53.540;10.224;2023-03-30T12:33:22;3.53;;;1.17;;
5491;SDS011;2768;53.540;10.224;2023-03-30T12:39:20;3.70;;;1.33;;
5491;SDS011;2768;53.540;10.224;2023-03-30T12:45:24;4.20;;;1.53;;
5491;SDS011;2768;53.540;10.224;2023-03-30T12:51:29;5.20;;;1.90;;
5491;SDS011;2768;53.540;10.224;2023-03-30T12:57:38;10.80;;;2.77;;
5491;SDS011;2768;53.540;10.224;2023-03-30T13:03:42;9.50;;;2.70;;
5491;SDS011;2768;53.540;10.224;2023-03-30T13:09:52;7.10;;;2.43;;
5491;SDS011;2768;53.540;10.224;2023-03-30T13:15:48;6.10;;;2.10;;
5491;SDS011;2768;53.540;10.224;2023-03-30T13:21:46;6.10;;;2.40;;
5491;SDS011;2768;53.540;10.224;2023-03-30T13:27:42;7.83;;;2.10;;
5491;SDS011;2768;53.540;10.224;2023-03-30T13:33:36;9.30;;;2.43;;
5491;SDS011;2768;53.540;10.224;2023-03-30T13:39:34;10.53;;;2.17;;
5491;SDS011;2768;53.540;10.224;2023-03-30T13:45:35;5.57;;;2.30;;
5491;SDS011;2768;53.540;10.224;2023-03-30T13:51:37;3.70;;;1.83;;
5491;SDS011;2768;53.540;10.224;2023-03-30T13:57:32;8.10;;;1.80;;
5491;SDS011;2768;53.540;10.224;2023-03-30T14:03:30;4.27;;;1.87;;
5491;SDS011;2768;53.540;10.224;2023-03-30T14:09:26;8.60;;;1.80;;
5491;SDS011;2768;53.540;10.224;2023-03-30T14:15:20;4.37;;;1.73;;
5491;SDS011;2768;53.540;10.224;2023-03-30T14:21:17;9.53;;;2.13;;
5491;SDS011;2768;53.540;10.224;2023-03-30T14:27:12;4.70;;;1.43;;
5491;SDS011;2768;53.540;10.224;2023-03-30T14:33:07;5.97;;;1.53;;
5491;SDS011;2768;53.540;10.224;2023-03-30T14:39:03;7.87;;;1.63;;
5491;SDS011;2768;53.540;10.224;2023-03-30T14:45:00;7.57;;;1.40;;
5491;SDS011;2768;53.540;10.224;2023-03-30T14:50:55;4.80;;;1.87;;
5491;SDS011;2768;53.540;10.224;2023-03-30T14:56:52;5.60;;;1.90;;
5491;SDS011;2768;53.540;10.224;2023-03-30T15:02:50;9.87;;;1.80;;
5491;SDS011;2768;53.540;10.224;2023-03-30T15:08:46;4.27;;;1.50;;
5491;SDS011;2768;53.540;10.224;2023-03-30T15:14:41;9.97;;;1.80;;
5491;SDS011;2768;53.540;10.224;2023-03-30T15:20:34;6.33;;;1.53;;
5491;SDS011;2768;53.540;10.224;2023-03-30T15:26:27;3.90;;;1.67;;
5491;SDS011;2768;53.540;10.224;2023-03-30T15:32:25;6.77;;;1.70;;
5491;SDS011;2768;53.540;10.224;2023-03-30T15:38:28;4.03;;;1.73;;
5491;SDS011;2768;53.540;10.224;2023-03-30T15:44:22;4.37;;;1.63;;
5491;SDS011;2768;53.540;10.224;2023-03-30T15:50:17;7.20;;;1.80;;
5491;SDS011;2768;53.540;10.224;2023-03-30T15:56:12;5.60;;;2.40;;
5491;SDS011;2768;53.540;10.224;2023-03-30T16:02:13;3.97;;;1.30;;
5491;SDS011;2768;53.540;10.224;2023-03-30T16:08:09;4.10;;;1.60;;
5491;SDS011;2768;53.540;10.224;2023-03-30T16:14:02;6.73;;;1.80;;
5491;SDS011;2768;53.540;10.224;2023-03-30T16:19:57;7.37;;;2.17;;
5491;SDS011;2768;53.540;10.224;2023-03-30T16:25:53;6.40;;;1.90;;
5491;SDS011;2768;53.540;10.224;2023-03-30T16:31:46;6.53;;;1.70;;
5491;SDS011;2768;53.540;10.224;2023-03-30T16:37:40;7.93;;;2.40;;
5491;SDS011;2768;53.540;10.224;2023-03-30T16:43:35;10.53;;;2.37;;
5491;SDS011;2768;53.540;10.224;2023-03-30T16:49:28;8.27;;;2.57;;
5491;SDS011;2768;53.540;10.224;2023-03-30T16:55:21;13.00;;;3.00;;
5491;SDS011;2768;53.540;10.224;2023-03-30T17:01:16;10.20;;;2.73;;
5491;SDS011;2768;53.540;10.224;2023-03-30T17:07:09;14.70;;;3.70;;
5491;SDS011;2768;53.540;10.224;2023-03-30T17:13:02;10.10;;;2.87;;
5491;SDS011;2768;53.540;10.224;2023-03-30T17:18:58;13.80;;;2.70;;
5491;SDS011;2768;53.540;10.224;2023-03-30T17:24:51;11.90;;;2.77;;
5491;SDS011;2768;53.540;10.224;2023-03-30T17:30:44;9.60;;;2.67;;
5491;SDS011;2768;53.540;10.224;2023-03-30T17:36:39;7.73;;;2.53;;
5491;SDS011;2768;53.540;10.224;2023-03-30T17:42:32;11.13;;;2.80;;
5491;SDS011;2768;53.540;10.224;2023-03-30T17:48:26;13.40;;;3.50;;
5491;SDS011;2768;53.540;10.224;2023-03-30T17:54:21;14.10;;;4.00;;
5491;SDS011;2768;53.540;10.224;2023-03-30T18:00:26;12.30;;;3.43;;
5491;SDS011;2768;53.540;10.224;2023-03-30T18:06:21;11.13;;;2.90;;
5491;SDS011;2768;53.540;10.224;2023-03-30T18:12:17;15.23;;;2.83;;
5491;SDS011;2768;53.540;10.224;2023-03-30T18:18:10;14.07;;;5.43;;
5491;SDS011;2768;53.540;10.224;2023-03-30T18:24:04;9.53;;;2.57;;
5491;SDS011;2768;53.540;10.224;2023-03-30T18:29:59;11.70;;;3.17;;
5491;SDS011;2768;53.540;10.224;2023-03-30T18:35:52;12.53;;;3.17;;
5491;SDS011;2768;53.540;10.224;2023-03-30T18:41:47;9.07;;;2.50;;
5491;SDS011;2768;53.540;10.224;2023-03-30T18:47:42;8.57;;;2.63;;
5491;SDS011;2768;53.540;10.224;2023-03-30T18:53:36;10.67;;;2.63;;
5491;SDS011;2768;53.540;10.224;2023-03-30T18:59:28;18.07;;;3.70;;
5491;SDS011;2768;53.540;10.224;2023-03-30T19:05:24;9.70;;;4.00;;
5491;SDS011;2768;53.540;10.224;2023-03-30T19:11:19;9.77;;;3.47;;
5491;SDS011;2768;53.540;10.224;2023-03-30T19:17:15;15.60;;;4.43;;
5491;SDS011;2768;53.540;10.224;2023-03-30T19:23:10;7.47;;;2.63;;
5491;SDS011;2768;53.540;10.224;2023-03-30T19:29:04;14.30;;;2.90;;
5491;SDS011;2768;53.540;10.224;2023-03-30T19:34:58;8.70;;;2.40;;
5491;SDS011;2768;53.540;10.224;2023-03-30T19:40:53;8.87;;;2.57;;
5491;SDS011;2768;53.540;10.224;2023-03-30T19:46:51;10.57;;;2.90;;
5491;SDS011;2768;53.540;10.224;2023-03-30T19:52:45;8.33;;;2.83;;
5491;SDS011;2768;53.540;10.224;2023-03-30T19:58:41;12.23;;;2.80;;
5491;SDS011;2768;53.540;10.224;2023-03-30T20:04:35;11.33;;;3.23;;
5491;SDS011;2768;53.540;10.224;2023-03-30T20:10:28;9.87;;;2.50;;
5491;SDS011;2768;53.540;10.224;2023-03-30T20:16:23;9.87;;;2.77;;
5491;SDS011;2768;53.540;10.224;2023-03-30T20:22:16;13.23;;;2.80;;
5491;SDS011;2768;53.540;10.224;2023-03-30T20:28:10;9.00;;;2.80;;
5491;SDS011;2768;53.540;10.224;2023-03-30T20:34:05;18.47;;;4.10;;
5491;SDS011;2768;53.540;10.224;2023-03-30T20:40:00;13.90;;;4.43;;
5491;SDS011;2768;53.540;10.224;2023-03-30T20:46:00;13.90;;;3.20;;
5491;SDS011;2768;53.540;10.224;2023-03-30T20:51:55;13.53;;;2.70;;
5491;SDS011;2768;53.540;10.224;2023-03-30T20:57:51;13.23;;;3.40;;
5491;SDS011;2768;53.540;10.224;2023-03-30T21:03:44;12.17;;;3.30;;
5491;SDS011;2768;53.540;10.224;2023-03-30T21:09:42;11.07;;;2.67;;
5491;SDS011;2768;53.540;10.224;2023-03-30T21:15:36;11.90;;;3.33;;
5491;SDS011;2768;53.540;10.224;2023-03-30T21:21:29;12.17;;;3.30;;
5491;SDS011;2768;53.540;10.224;2023-03-30T21:27:25;11.90;;;3.93;;
5491;SDS011;2768;53.540;10.224;2023-03-30T21:33:19;12.90;;;3.87;;
5491;SDS011;2768;53.540;10.224;2023-03-30T21:39:12;15.10;;;3.47;;
5491;SDS011;2768;53.540;10.224;2023-03-30T21:45:08;17.00;;;3.63;;
5491;SDS011;2768;53.540;10.224;2023-03-30T21:51:03;12.90;;;3.17;;
5491;SDS011;2768;53.540;10.224;2023-03-30T21:56:58;13.03;;;3.70;;
5491;SDS011;2768;53.540;10.224;2023-03-30T22:02:53;12.57;;;3.90;;
5491;SDS011;2768;53.540;10.224;2023-03-30T22:08:46;15.67;;;4.50;;
5491;SDS011;2768;53.540;10.224;2023-03-30T22:14:40;18.37;;;4.50;;
5491;SDS011;2768;53.540;10.224;2023-03-30T22:20:35;20.50;;;5.10;;
5491;SDS011;2768;53.540;10.224;2023-03-30T22:26:32;15.60;;;4.67;;
5491;SDS011;2768;53.540;10.224;2023-03-30T22:32:25;16.70;;;5.00;;
5491;SDS011;2768;53.540;10.224;2023-03-30T22:38:20;19.47;;;5.87;;
5491;SDS011;2768;53.540;10.224;2023-03-30T22:44:14;25.07;;;5.60;;
5491;SDS011;2768;53.540;10.224;2023-03-30T22:50:08;20.30;;;5.97;;
5491;SDS011;2768;53.540;10.224;2023-03-30T22:56:03;15.73;;;6.10;;
5491;SDS011;2768;53.540;10.224;2023-03-30T23:01:58;11.60;;;3.70;;
5491;SDS011;2768;53.540;10.224;2023-03-30T23:07:51;12.73;;;3.13;;
5491;SDS011;2768;53.540;10.224;2023-03-30T23:13:46;16.13;;;3.67;;
5491;SDS011;2768;53.540;10.224;2023-03-30T23:19:39;12.03;;;3.40;;
5491;SDS011;2768;53.540;10.224;2023-03-30T23:25:36;12.50;;;3.50;;
5491;SDS011;2768;53.540;10.224;2023-03-30T23:31:31;12.27;;;3.03;;
5491;SDS011;2768;53.540;10.224;2023-03-30T23:37:25;15.00;;;3.87;;
5491;SDS011;2768;53.540;10.224;2023-03-30T23:43:20;10.63;;;3.20;;
5491;SDS011;2768;53.540;10.224;2023-03-30T23:49:15;16.10;;;4.30;;
5491;SDS011;2768;53.540;10.224;2023-03-30T23:55:09;15.30;;;3.30;;
